createdAt,value
2022-09-14T00:01:26.193Z,21.80
2022-09-14T00:05:28.481Z,22.10
2022-09-14T00:09:30.283Z,21.40
2022-09-14T00:13:32.314Z,21.20
2022-09-14T00:17:34.421Z,21.70
2022-09-14T00:21:39.377Z,22.00
2022-09-14T00:25:40.990Z,22.30
2022-09-14T00:29:43.070Z,22.40
2022-09-14T00:33:49.479Z,22.50
2022-09-14T00:37:51.619Z,22.60
2022-09-14T00:41:53.987Z,22.40
2022-09-14T00:45:56.168Z,22.30
2022-09-14T00:49:59.715Z,21.90
2022-09-14T00:54:03.160Z,22.10
2022-09-14T00:58:05.781Z,21.60
2022-09-14T01:02:09.227Z,21.20
2022-09-14T01:06:23.369Z,21.60
2022-09-14T01:10:29.999Z,21.90
2022-09-14T01:14:35.357Z,21.80
2022-09-14T01:18:42.469Z,21.80
2022-09-14T01:23:06.129Z,22.30
2022-09-14T01:27:22.569Z,22.60
2022-09-14T01:31:32.360Z,22.20
2022-09-14T01:35:51.120Z,22.30
2022-09-14T01:39:59.391Z,22.50
2022-09-14T01:44:05.613Z,22.50
2022-09-14T01:48:10.241Z,22.70
2022-09-14T01:52:16.521Z,22.50
2022-09-14T01:56:26.090Z,22.70
2022-09-14T02:00:28.271Z,22.80
2022-09-14T02:04:55.470Z,22.80
2022-09-14T02:08:57.405Z,22.80
2022-09-14T02:12:59.209Z,22.30
2022-09-14T02:17:01.937Z,21.40
2022-09-14T02:21:09.365Z,20.70
2022-09-14T02:25:11.355Z,20.90
2022-09-14T02:29:13.057Z,21.70
2022-09-14T02:33:34.622Z,22.30
2022-09-14T02:38:07.501Z,22.50
2022-09-14T02:42:37.115Z,22.20
2022-09-14T02:47:03.624Z,21.70
2022-09-14T02:51:27.186Z,21.50
2022-09-14T02:55:35.738Z,21.10
2022-09-14T02:59:37.354Z,22.00
2022-09-14T03:03:39.505Z,22.30
2022-09-14T03:07:41.540Z,22.10
2022-09-14T03:11:43.623Z,21.30
2022-09-14T03:15:45.770Z,22.00
2022-09-14T03:19:47.426Z,22.20
2022-09-14T03:23:57.858Z,22.30
2022-09-14T03:28:00.212Z,22.40
2022-09-14T03:32:02.116Z,22.20
2022-09-14T03:36:11.613Z,22.00
2022-09-14T03:40:19.326Z,22.10
2022-09-14T03:44:23.210Z,22.40
2022-09-14T03:48:24.908Z,22.40
2022-09-14T03:52:26.559Z,22.40
2022-09-14T03:56:28.199Z,22.60
2022-09-14T04:00:29.866Z,22.40
2022-09-14T04:04:31.521Z,22.20
2022-09-14T04:08:35.156Z,22.20
2022-09-14T04:12:38.033Z,22.60
2022-09-14T04:16:40.871Z,22.40
2022-09-14T04:20:42.502Z,22.50
2022-09-14T04:24:44.190Z,22.60
2022-09-14T04:28:46.596Z,22.70
2022-09-14T04:32:48.262Z,22.60
2022-09-14T04:36:50.009Z,22.50
2022-09-14T04:40:51.888Z,22.70
2022-09-14T04:44:53.510Z,22.80
2022-09-14T04:48:55.912Z,22.70
2022-09-14T04:52:57.535Z,22.60
2022-09-14T04:56:59.206Z,22.80
2022-09-14T05:01:15.723Z,22.80
2022-09-14T05:05:17.361Z,22.60
2022-09-14T05:09:19.513Z,22.60
2022-09-14T05:13:21.292Z,22.50
2022-09-14T05:17:23.060Z,22.70
2022-09-14T05:21:25.169Z,22.70
2022-09-14T05:25:27.445Z,22.70
2022-09-14T05:29:29.930Z,22.80
2022-09-14T05:33:31.882Z,22.70
2022-09-14T05:37:33.517Z,22.80
2022-09-14T05:41:35.360Z,22.80
2022-09-14T05:45:37.163Z,22.70
2022-09-14T05:49:39.575Z,23.00
2022-09-14T05:53:41.997Z,22.70
2022-09-14T05:57:43.673Z,22.50
2022-09-14T06:01:45.541Z,22.80
2022-09-14T06:05:47.381Z,22.80
2022-09-14T06:09:49.133Z,23.00
2022-09-14T06:13:51.559Z,23.00
2022-09-14T06:17:53.281Z,23.10
2022-09-14T06:21:55.184Z,23.20
2022-09-14T06:26:00.024Z,23.10
2022-09-14T06:30:02.282Z,22.60
2022-09-14T06:34:04.632Z,23.00
2022-09-14T06:38:06.281Z,23.30
2022-09-14T06:42:07.989Z,23.30
2022-09-14T06:46:21.664Z,23.60
2022-09-14T06:50:23.446Z,23.30
2022-09-14T06:54:25.421Z,23.30
2022-09-14T06:58:27.093Z,23.60
2022-09-14T07:02:34.730Z,24.00
2022-09-14T07:06:42.697Z,24.10
2022-09-14T07:10:45.007Z,24.10
2022-09-14T07:14:46.776Z,24.20
2022-09-14T07:18:48.460Z,24.40
2022-09-14T07:22:50.239Z,24.70
2022-09-14T07:26:51.898Z,24.80
2022-09-14T07:30:58.355Z,24.50
2022-09-14T07:35:01.109Z,24.20
2022-09-14T07:39:05.641Z,24.30
2022-09-14T07:43:08.037Z,24.60
2022-09-14T07:47:09.689Z,24.60
2022-09-14T07:51:12.421Z,24.90
2022-09-14T07:55:14.230Z,25.00
2022-09-14T07:59:35.995Z,24.60
2022-09-14T08:03:43.525Z,24.70
2022-09-14T08:07:45.230Z,24.90
2022-09-14T08:11:46.875Z,25.10
2022-09-14T08:15:48.622Z,24.70
2022-09-14T08:19:52.114Z,25.10
2022-09-14T08:23:54.636Z,25.20
2022-09-14T08:27:56.267Z,25.20
2022-09-14T08:31:58.505Z,25.60
2022-09-14T08:36:00.997Z,25.50
2022-09-14T08:40:03.197Z,25.30
2022-09-14T08:44:26.358Z,25.20
2022-09-14T08:48:34.900Z,25.00
2022-09-14T08:52:50.433Z,24.90
2022-09-14T08:57:04.616Z,24.90
2022-09-14T09:01:18.509Z,25.10
2022-09-14T09:05:33.212Z,24.50
2022-09-14T09:09:50.087Z,24.20
2022-09-14T09:13:53.244Z,24.90
2022-09-14T09:18:01.151Z,25.20
2022-09-14T09:22:09.696Z,25.10
2022-09-14T09:26:25.617Z,25.50
2022-09-14T09:30:29.421Z,26.10
2022-09-14T09:34:31.548Z,26.20
2022-09-14T09:38:33.185Z,25.90
2022-09-14T09:42:34.870Z,26.00
2022-09-14T09:46:57.365Z,26.30
2022-09-14T09:51:04.891Z,26.50
2022-09-14T09:55:07.766Z,26.90
2022-09-14T09:59:44.157Z,26.00
2022-09-14T10:04:05.474Z,25.40
2022-09-14T10:08:15.031Z,25.20
2022-09-14T10:12:24.638Z,25.10
2022-09-14T10:16:38.977Z,25.60
2022-09-14T10:21:05.510Z,25.30
2022-09-14T10:25:13.221Z,24.90
2022-09-14T10:29:37.912Z,25.10
2022-09-14T10:33:40.155Z,24.60
2022-09-14T10:37:49.346Z,25.20
2022-09-14T10:42:12.165Z,25.00
2022-09-14T10:46:24.756Z,25.40
2022-09-14T10:50:28.248Z,25.50
2022-09-14T10:54:51.542Z,25.50
2022-09-14T10:59:04.883Z,25.20
2022-09-14T11:03:09.573Z,25.50
2022-09-14T11:07:20.297Z,26.30
2022-09-14T11:11:28.182Z,26.30
2022-09-14T11:15:44.407Z,26.80
2022-09-14T11:20:07.893Z,27.20
2022-09-14T11:24:41.096Z,26.70
2022-09-14T11:28:52.039Z,27.40
2022-09-14T11:33:05.237Z,26.70
2022-09-14T11:37:14.144Z,26.70
2022-09-14T11:41:25.495Z,27.40
2022-09-14T11:45:49.257Z,27.30
2022-09-14T11:50:03.267Z,27.40
2022-09-14T11:54:13.322Z,27.20
2022-09-14T11:58:29.520Z,27.10
2022-09-14T12:02:37.314Z,27.40
2022-09-14T12:06:39.109Z,27.30
2022-09-14T12:11:00.999Z,27.50
2022-09-14T12:15:11.701Z,28.00
2022-09-14T12:19:17.813Z,27.30
2022-09-14T12:23:58.288Z,27.10
2022-09-14T12:28:00.103Z,26.70
2022-09-14T12:32:05.136Z,27.10
2022-09-14T12:36:22.018Z,27.40
2022-09-14T12:40:29.995Z,27.90
2022-09-14T12:44:43.219Z,27.70
2022-09-14T12:48:47.969Z,28.40
2022-09-14T12:52:55.165Z,28.60
2022-09-14T12:57:30.840Z,28.70
2022-09-14T13:02:00.766Z,28.40
2022-09-14T13:06:02.972Z,27.00
2022-09-14T13:10:06.768Z,27.30
2022-09-14T13:14:18.031Z,27.60
2022-09-14T13:18:19.818Z,28.00
2022-09-14T13:22:24.373Z,28.00
2022-09-14T13:26:31.615Z,27.60
2022-09-14T13:30:41.741Z,26.60
2022-09-14T13:34:43.495Z,26.30
2022-09-14T13:38:46.006Z,26.10
2022-09-14T13:42:47.714Z,26.80
2022-09-14T13:46:49.721Z,26.90
2022-09-14T13:50:52.397Z,26.20
2022-09-14T13:55:07.553Z,25.90
2022-09-14T13:59:10.458Z,26.10
2022-09-14T14:03:30.461Z,26.00
2022-09-14T14:07:34.411Z,25.60
2022-09-14T14:11:43.897Z,25.00
2022-09-14T14:15:45.669Z,25.40
2022-09-14T14:19:48.557Z,25.50
2022-09-14T14:24:13.542Z,25.10
2022-09-14T14:28:18.891Z,25.50
2022-09-14T14:32:20.568Z,25.70
2022-09-14T14:36:22.304Z,25.90
2022-09-14T14:40:27.218Z,25.60
2022-09-14T14:44:29.751Z,25.20
2022-09-14T14:48:31.576Z,25.10
2022-09-14T14:52:33.266Z,26.10
2022-09-14T14:56:35.191Z,26.10
2022-09-14T15:00:38.417Z,24.90
2022-09-14T15:04:40.129Z,24.30
2022-09-14T15:08:42.397Z,24.90
2022-09-14T15:12:45.243Z,25.40
2022-09-14T15:16:47.863Z,25.90
2022-09-14T15:20:49.557Z,26.10
2022-09-14T15:24:51.503Z,25.60
2022-09-14T15:28:53.317Z,24.60
2022-09-14T15:33:01.412Z,24.40
2022-09-14T15:37:03.309Z,24.00
2022-09-14T15:41:05.273Z,24.20
2022-09-14T15:45:08.904Z,24.50
2022-09-14T15:49:19.485Z,24.80
2022-09-14T15:53:21.170Z,24.40
2022-09-14T15:57:22.856Z,24.20
2022-09-14T16:01:24.593Z,24.30
2022-09-14T16:05:26.532Z,24.50
2022-09-14T16:09:28.300Z,25.00
2022-09-14T16:13:30.439Z,24.80
2022-09-14T16:17:33.784Z,23.90
2022-09-14T16:21:37.174Z,23.90
2022-09-14T16:25:41.913Z,24.40
2022-09-14T16:29:43.862Z,24.10
2022-09-14T16:33:48.393Z,24.80
2022-09-14T16:37:50.069Z,24.40
2022-09-14T16:41:53.951Z,23.90
2022-09-14T16:46:10.333Z,23.80
2022-09-14T16:50:12.096Z,23.80
2022-09-14T16:54:19.775Z,23.50
2022-09-14T16:58:21.470Z,23.50
2022-09-14T17:02:24.659Z,23.50
2022-09-14T17:06:29.134Z,23.00
2022-09-14T17:10:34.859Z,22.70
2022-09-14T17:14:37.161Z,22.80
2022-09-14T17:18:41.187Z,23.20
2022-09-14T17:22:43.589Z,22.90
2022-09-14T17:26:45.796Z,23.00
2022-09-14T17:30:47.523Z,22.70
2022-09-14T17:34:49.351Z,23.50
2022-09-14T17:38:51.626Z,23.30
2022-09-14T17:42:53.844Z,22.80
2022-09-14T17:46:55.606Z,22.70
2022-09-14T17:50:57.345Z,22.60
2022-09-14T17:54:59.095Z,22.80
2022-09-14T17:59:17.075Z,23.10
2022-09-14T18:03:19.000Z,23.30
2022-09-14T18:07:20.693Z,23.50
2022-09-14T18:11:23.978Z,23.60
2022-09-14T18:15:25.683Z,23.70
2022-09-14T18:19:27.401Z,23.60
2022-09-14T18:23:29.586Z,23.50
2022-09-14T18:27:32.111Z,23.30
2022-09-14T18:31:34.039Z,23.10
2022-09-14T18:35:39.034Z,23.20
2022-09-14T18:39:41.199Z,23.50
2022-09-14T18:43:47.901Z,23.40
2022-09-14T18:47:49.584Z,22.90
2022-09-14T18:51:51.498Z,22.60
2022-09-14T18:55:53.188Z,22.70
2022-09-14T18:59:56.167Z,22.70
2022-09-14T19:03:58.116Z,23.00
2022-09-14T19:07:59.920Z,23.00
2022-09-14T19:12:02.725Z,22.60
2022-09-14T19:16:08.640Z,22.30
2022-09-14T19:20:11.352Z,22.20
2022-09-14T19:24:17.445Z,22.40
2022-09-14T19:28:19.407Z,22.10
2022-09-14T19:32:21.156Z,21.80
2022-09-14T19:36:23.774Z,21.30
2022-09-14T19:40:25.508Z,21.20
2022-09-14T19:44:27.446Z,21.70
2022-09-14T19:48:29.094Z,21.90
2022-09-14T19:52:30.906Z,22.10
2022-09-14T19:56:32.949Z,22.10
2022-09-14T20:00:35.910Z,22.10
2022-09-14T20:04:37.900Z,22.50
2022-09-14T20:08:39.600Z,22.70
2022-09-14T20:12:41.296Z,22.40
2022-09-14T20:16:45.985Z,22.10
2022-09-14T20:20:48.838Z,21.90
2022-09-14T20:24:50.491Z,22.20
2022-09-14T20:28:52.556Z,21.80
2022-09-14T20:32:54.967Z,21.30
2022-09-14T20:36:57.397Z,21.10
2022-09-14T20:41:01.582Z,21.60
2022-09-14T20:45:03.656Z,22.00
2022-09-14T20:49:10.177Z,21.90
2022-09-14T20:53:11.797Z,22.40
2022-09-14T20:57:13.525Z,22.50
2022-09-14T21:01:19.577Z,22.60
2022-09-14T21:05:21.305Z,22.60
2022-09-14T21:09:25.481Z,22.60
2022-09-14T21:13:27.133Z,22.70
2022-09-14T21:17:28.954Z,22.10
2022-09-14T21:21:30.780Z,22.30
2022-09-14T21:25:33.103Z,22.60
2022-09-14T21:29:34.733Z,23.00
2022-09-14T21:33:38.363Z,23.10
2022-09-14T21:37:40.078Z,23.10
2022-09-14T21:41:44.299Z,23.30
2022-09-14T21:45:46.200Z,23.10
2022-09-14T21:49:51.174Z,22.80
2022-09-14T21:53:58.242Z,22.90
2022-09-14T21:57:59.957Z,22.80
2022-09-14T22:02:01.887Z,23.00
2022-09-14T22:06:11.140Z,22.90
2022-09-14T22:10:12.793Z,22.80
2022-09-14T22:14:19.303Z,22.40
2022-09-14T22:18:21.416Z,22.60
2022-09-14T22:22:23.029Z,22.70
2022-09-14T22:26:26.561Z,22.70
2022-09-14T22:30:28.277Z,22.50
2022-09-14T22:34:29.977Z,22.20
2022-09-14T22:38:34.231Z,21.30
2022-09-14T22:42:37.054Z,21.70
2022-09-14T22:46:38.813Z,22.20
2022-09-14T22:50:43.490Z,22.20
2022-09-14T22:54:45.108Z,21.90
2022-09-14T22:58:47.876Z,21.60
2022-09-14T23:02:49.652Z,21.70
2022-09-14T23:06:51.542Z,21.70
2022-09-14T23:10:54.637Z,21.90
2022-09-14T23:14:56.529Z,21.40
2022-09-14T23:19:03.963Z,21.00
2022-09-14T23:23:06.365Z,21.40
2022-09-14T23:27:08.946Z,21.00
2022-09-14T23:31:10.931Z,21.20
2022-09-14T23:35:12.666Z,21.10
2022-09-14T23:39:14.537Z,21.40
2022-09-14T23:43:20.185Z,21.70
2022-09-14T23:47:21.809Z,21.70
2022-09-14T23:51:24.249Z,21.60
2022-09-14T23:55:26.591Z,21.50
2022-09-14T23:59:28.230Z,21.70
